createdAt,value
2017-10-12T00:00:08.115Z,1027.13
2017-10-12T00:01:08.109Z,1027.14
2017-10-12T00:02:08.103Z,1027.15
2017-10-12T00:03:08.097Z,1027.12
2017-10-12T00:04:08.090Z,1027.15
2017-10-12T00:05:08.085Z,1027.1
2017-10-12T00:06:08.079Z,1027.07
2017-10-12T00:07:08.073Z,1027.07
2017-10-12T00:08:08.069Z,1027.03
2017-10-12T00:09:08.062Z,1027.04
2017-10-12T00:10:08.057Z,1027.02
2017-10-12T00:11:08.050Z,1027.02
2017-10-12T00:12:08.044Z,1027.03
2017-10-12T00:13:08.037Z,1026.99
2017-10-12T00:14:08.038Z,1027.06
2017-10-12T00:15:08.027Z,1027.05
2017-10-12T00:16:08.022Z,1027.05
2017-10-12T00:17:08.015Z,1027.04
2017-10-12T00:18:08.009Z,1027.09
2017-10-12T00:19:08.002Z,1027.01
2017-10-12T00:20:07.997Z,1027.06
2017-10-12T00:21:07.992Z,1027.06
2017-10-12T00:22:07.986Z,1027.05
2017-10-12T00:23:07.979Z,1027.02
2017-10-12T00:24:07.973Z,1027.05
2017-10-12T00:25:07.969Z,1027.02
2017-10-12T00:26:07.961Z,1026.98
2017-10-12T00:27:07.957Z,1026.94
2017-10-12T00:28:07.951Z,1026.95
2017-10-12T00:29:07.951Z,1026.9
2017-10-12T00:30:07.939Z,1026.92
2017-10-12T00:31:07.933Z,1026.91
2017-10-12T00:32:07.927Z,1026.94
2017-10-12T00:33:07.920Z,1026.96
2017-10-12T00:34:07.914Z,1026.95
2017-10-12T00:35:07.910Z,1026.99
2017-10-12T00:36:07.904Z,1026.88
2017-10-12T00:37:07.898Z,1026.9
2017-10-12T00:38:07.892Z,1026.84
2017-10-12T00:39:07.885Z,1026.87
2017-10-12T00:40:07.879Z,1026.91
2017-10-12T00:41:07.873Z,1026.83
2017-10-12T00:42:07.867Z,1026.81
2017-10-12T00:43:07.865Z,1026.79
2017-10-12T00:44:07.855Z,1026.86
2017-10-12T00:45:07.849Z,1026.84
2017-10-12T00:46:07.843Z,1026.76
2017-10-12T00:47:07.838Z,1026.75
2017-10-12T00:48:07.836Z,1026.78
2017-10-12T00:49:07.831Z,1026.76
2017-10-12T00:50:07.821Z,1026.75
2017-10-12T00:51:07.814Z,1026.7
2017-10-12T00:52:07.808Z,1026.68
2017-10-12T00:53:07.823Z,1026.73
2017-10-12T00:54:07.797Z,1026.73
2017-10-12T00:55:07.791Z,1026.7
2017-10-12T00:56:07.789Z,1026.68
2017-10-12T00:57:07.781Z,1026.63
2017-10-12T00:58:07.775Z,1026.69
2017-10-12T00:59:07.767Z,1026.67
2017-10-12T01:00:07.763Z,1026.69
2017-10-12T01:01:07.757Z,1026.64
2017-10-12T01:02:07.751Z,1026.66
2017-10-12T01:03:07.746Z,1026.68
2017-10-12T01:04:07.741Z,1026.69
2017-10-12T01:05:07.736Z,1026.69
2017-10-12T01:06:07.727Z,1026.69
2017-10-12T01:07:07.721Z,1026.66
2017-10-12T01:08:07.718Z,1026.59
2017-10-12T01:09:07.709Z,1026.61
2017-10-12T01:10:07.703Z,1026.59
2017-10-12T01:11:07.698Z,1026.56
2017-10-12T01:12:07.692Z,1026.59
2017-10-12T01:13:07.685Z,1026.61
2017-10-12T01:14:07.679Z,1026.62
2017-10-12T01:15:07.674Z,1026.59
2017-10-12T01:16:07.670Z,1026.55
2017-10-12T01:17:07.663Z,1026.54
2017-10-12T01:18:07.658Z,1026.49
2017-10-12T01:19:07.651Z,1026.46
2017-10-12T01:20:07.645Z,1026.43
2017-10-12T01:21:07.639Z,1026.4
2017-10-12T01:22:07.632Z,1026.34
2017-10-12T01:23:07.631Z,1026.39
2017-10-12T01:24:07.622Z,1026.41
2017-10-12T01:25:07.616Z,1026.43
2017-10-12T01:26:07.626Z,1026.4
2017-10-12T01:27:07.604Z,1026.44
2017-10-12T01:28:07.596Z,1026.39
2017-10-12T01:29:07.591Z,1026.34
2017-10-12T01:30:07.585Z,1026.34
2017-10-12T01:31:07.579Z,1026.33
2017-10-12T01:32:07.574Z,1026.35
2017-10-12T01:33:07.569Z,1026.29
2017-10-12T01:34:07.562Z,1026.34
2017-10-12T01:35:07.554Z,1026.3
2017-10-12T01:36:07.548Z,1026.38
2017-10-12T01:37:07.544Z,1026.38
2017-10-12T01:38:07.540Z,1026.42
2017-10-12T01:39:07.531Z,1026.41
2017-10-12T01:40:07.525Z,1026.5
2017-10-12T01:41:07.519Z,1026.57
2017-10-12T01:42:07.511Z,1026.57
2017-10-12T01:43:07.508Z,1026.62
2017-10-12T01:44:07.506Z,1026.63
2017-10-12T01:45:07.497Z,1026.66
2017-10-12T01:46:07.490Z,1026.69
2017-10-12T01:47:07.481Z,1026.73
2017-10-12T01:48:07.477Z,1026.8
2017-10-12T01:49:07.470Z,1026.82
2017-10-12T01:50:07.463Z,1026.81
2017-10-12T01:51:07.458Z,1026.8
2017-10-12T01:52:07.453Z,1026.88
2017-10-12T01:53:07.447Z,1026.85
2017-10-12T01:54:07.440Z,1026.89
2017-10-12T01:55:07.440Z,1026.86
2017-10-12T01:56:07.425Z,1026.85
2017-10-12T01:57:07.418Z,1026.89
2017-10-12T01:58:07.413Z,1026.9
2017-10-12T01:59:07.411Z,1026.95
2017-10-12T02:00:07.401Z,1026.9
2017-10-12T02:01:07.393Z,1026.97
2017-10-12T02:02:07.386Z,1026.94
2017-10-12T02:03:07.382Z,1026.9
2017-10-12T02:04:07.374Z,1026.87
2017-10-12T02:05:07.369Z,1026.8
2017-10-12T02:06:07.364Z,1026.76
2017-10-12T02:07:07.354Z,1026.76
2017-10-12T02:08:07.347Z,1026.78
2017-10-12T02:09:07.341Z,1026.77
2017-10-12T02:10:07.334Z,1026.75
2017-10-12T02:11:07.329Z,1026.76
2017-10-12T02:12:07.326Z,1026.73
2017-10-12T02:13:07.315Z,1026.76
2017-10-12T02:14:07.308Z,1026.8
2017-10-12T02:15:07.300Z,1026.76
2017-10-12T02:16:07.296Z,1026.78
2017-10-12T02:17:07.293Z,1026.78
2017-10-12T02:18:07.279Z,1026.78
2017-10-12T02:19:07.273Z,1026.79
2017-10-12T02:20:07.275Z,1026.8
2017-10-12T02:21:07.260Z,1026.83
2017-10-12T02:22:07.252Z,1026.85
2017-10-12T02:23:07.244Z,1026.9
2017-10-12T02:24:07.238Z,1026.88
2017-10-12T02:25:07.231Z,1026.91
2017-10-12T02:26:07.223Z,1026.93
2017-10-12T02:27:07.217Z,1026.95
2017-10-12T02:28:07.211Z,1027.01
2017-10-12T02:29:07.202Z,1026.95
2017-10-12T02:30:07.196Z,1027.01
2017-10-12T02:31:07.192Z,1027.02
2017-10-12T02:32:07.183Z,1027.01
2017-10-12T02:33:07.176Z,1027
2017-10-12T02:34:07.168Z,1027.03
2017-10-12T02:35:07.161Z,1026.98
2017-10-12T02:36:07.154Z,1027.02
2017-10-12T02:37:07.147Z,1027
2017-10-12T02:38:07.139Z,1027.03
2017-10-12T02:39:07.133Z,1026.96
2017-10-12T02:40:07.127Z,1027.03
2017-10-12T02:41:07.120Z,1027.09
2017-10-12T02:42:07.113Z,1027.08
2017-10-12T02:43:07.105Z,1027.1
2017-10-12T02:44:07.096Z,1027.13
2017-10-12T02:45:07.088Z,1027.13
2017-10-12T02:46:07.083Z,1027.09
2017-10-12T02:47:07.077Z,1027.14
2017-10-12T02:48:07.071Z,1027.1
2017-10-12T02:49:07.060Z,1027.06
2017-10-12T02:50:07.054Z,1026.98
2017-10-12T02:51:07.047Z,1026.95
2017-10-12T02:52:07.039Z,1026.99
2017-10-12T02:53:07.032Z,1026.95
2017-10-12T02:54:07.024Z,1026.97
2017-10-12T02:55:07.015Z,1026.97
2017-10-12T02:56:07.009Z,1026.96
2017-10-12T02:57:07.000Z,1026.91
2017-10-12T02:58:06.994Z,1026.9
2017-10-12T02:59:06.987Z,1026.94
2017-10-12T03:00:06.980Z,1026.97
2017-10-12T03:01:06.973Z,1026.96
2017-10-12T03:02:06.966Z,1026.93
2017-10-12T03:03:06.956Z,1026.87
2017-10-12T03:04:06.956Z,1026.83
2017-10-12T03:05:06.943Z,1026.75
2017-10-12T03:06:06.934Z,1026.68
2017-10-12T03:07:06.929Z,1026.64
2017-10-12T03:08:06.922Z,1026.64
2017-10-12T03:09:06.914Z,1026.61
2017-10-12T03:10:06.906Z,1026.52
2017-10-12T03:11:06.898Z,1026.51
2017-10-12T03:12:06.892Z,1026.48
2017-10-12T03:13:06.884Z,1026.42
2017-10-12T03:14:06.875Z,1026.41
2017-10-12T03:15:06.870Z,1026.38
2017-10-12T03:16:06.863Z,1026.38
2017-10-12T03:17:06.854Z,1026.35
2017-10-12T03:18:06.848Z,1026.31
2017-10-12T03:19:06.840Z,1026.32
2017-10-12T03:20:06.834Z,1026.34
2017-10-12T03:21:06.824Z,1026.34
2017-10-12T03:22:06.819Z,1026.29
2017-10-12T03:23:06.811Z,1026.32
2017-10-12T03:24:06.804Z,1026.3
2017-10-12T03:25:06.795Z,1026.28
2017-10-12T03:26:06.789Z,1026.28
2017-10-12T03:27:06.783Z,1026.23
2017-10-12T03:28:06.775Z,1026.25
2017-10-12T03:29:06.767Z,1026.23
2017-10-12T03:30:06.762Z,1026.27
2017-10-12T03:31:06.754Z,1026.24
2017-10-12T03:32:06.745Z,1026.25
2017-10-12T03:33:06.739Z,1026.25
2017-10-12T03:34:06.731Z,1026.23
2017-10-12T03:35:06.726Z,1026.24
2017-10-12T03:36:06.718Z,1026.23
2017-10-12T03:37:06.711Z,1026.19
2017-10-12T03:38:06.705Z,1026.16
2017-10-12T03:39:06.696Z,1026.13
2017-10-12T03:40:06.689Z,1026.12
2017-10-12T03:41:06.684Z,1026.08
2017-10-12T03:42:06.676Z,1026.1
2017-10-12T03:43:06.669Z,1026.11
2017-10-12T03:44:06.662Z,1026.05
2017-10-12T03:45:06.654Z,1026.01
2017-10-12T03:46:06.648Z,1025.94
2017-10-12T03:47:06.640Z,1025.86
2017-10-12T03:48:06.636Z,1025.89
2017-10-12T03:49:06.628Z,1025.92
2017-10-12T03:50:06.620Z,1025.94
2017-10-12T03:51:06.616Z,1025.92
2017-10-12T03:52:06.606Z,1025.9
2017-10-12T03:53:06.600Z,1025.83
2017-10-12T03:54:06.592Z,1025.86
2017-10-12T03:55:06.585Z,1025.87
2017-10-12T03:56:06.578Z,1025.9
2017-10-12T03:57:06.575Z,1025.91
2017-10-12T03:58:06.566Z,1025.89
2017-10-12T03:59:06.559Z,1025.93
2017-10-12T04:00:06.550Z,1026
2017-10-12T04:01:06.543Z,1026.01
2017-10-12T04:02:06.537Z,1026.05
2017-10-12T04:03:06.532Z,1026.03
2017-10-12T04:04:06.525Z,1026.08
2017-10-12T04:05:06.518Z,1026.08
2017-10-12T04:06:06.514Z,1026.07
2017-10-12T04:07:06.504Z,1026.01
2017-10-12T04:08:06.499Z,1025.96
2017-10-12T04:09:06.491Z,1025.94
2017-10-12T04:10:06.485Z,1025.92
2017-10-12T04:11:06.479Z,1025.88
2017-10-12T04:12:06.469Z,1025.87
2017-10-12T04:13:06.465Z,1025.84
2017-10-12T04:14:06.457Z,1025.86
2017-10-12T04:15:06.452Z,1025.82
2017-10-12T04:16:06.445Z,1025.8
2017-10-12T04:17:06.439Z,1025.81
2017-10-12T04:18:06.431Z,1025.83
2017-10-12T04:19:06.422Z,1025.71
2017-10-12T04:20:06.417Z,1025.71
2017-10-12T04:21:06.410Z,1025.66
2017-10-12T04:22:06.404Z,1025.59
2017-10-12T04:23:06.398Z,1025.59
2017-10-12T04:24:06.391Z,1025.5
2017-10-12T04:25:06.387Z,1025.48
2017-10-12T04:26:06.378Z,1025.42
2017-10-12T04:27:06.370Z,1025.35
2017-10-12T04:28:06.363Z,1025.38
2017-10-12T04:29:06.358Z,1025.4
2017-10-12T04:30:06.354Z,1025.46
2017-10-12T04:31:06.344Z,1025.43
2017-10-12T04:32:06.340Z,1025.46
2017-10-12T04:33:06.332Z,1025.49
2017-10-12T04:34:06.326Z,1025.55
2017-10-12T04:35:06.318Z,1025.51
2017-10-12T04:36:06.310Z,1025.44
2017-10-12T04:37:06.305Z,1025.28
2017-10-12T04:38:06.301Z,1025.35
2017-10-12T04:39:06.304Z,1025.3
2017-10-12T04:40:06.288Z,1025.3
2017-10-12T04:41:06.298Z,1025.31
2017-10-12T04:42:06.275Z,1025.33
2017-10-12T04:43:06.266Z,1025.35
2017-10-12T04:44:06.264Z,1025.28
2017-10-12T04:45:06.252Z,1025.25
2017-10-12T04:46:06.246Z,1025.15
2017-10-12T04:47:06.241Z,1025.18
2017-10-12T04:48:06.235Z,1025.17
2017-10-12T04:49:06.245Z,1025.23
2017-10-12T04:50:06.225Z,1025.22
2017-10-12T04:51:06.217Z,1025.16
2017-10-12T04:52:06.208Z,1025.2
2017-10-12T04:53:06.206Z,1025.14
2017-10-12T04:54:06.198Z,1025.22
2017-10-12T04:55:06.193Z,1025.22
2017-10-12T04:56:06.185Z,1025.18
2017-10-12T04:57:06.178Z,1025.16
2017-10-12T04:58:06.173Z,1025.13
2017-10-12T04:59:06.166Z,1025.1
2017-10-12T05:00:06.159Z,1025.1
2017-10-12T05:01:06.154Z,1025.05
2017-10-12T05:02:06.148Z,1025.11
2017-10-12T05:03:06.141Z,1025.1
2017-10-12T05:04:06.135Z,1025.13
2017-10-12T05:05:06.129Z,1025.07
2017-10-12T05:06:06.123Z,1025.07
2017-10-12T05:07:06.117Z,1025.03
2017-10-12T05:08:06.111Z,1025.1
2017-10-12T05:09:06.105Z,1025.13
2017-10-12T05:10:06.100Z,1025.18
2017-10-12T05:11:06.091Z,1025.2
2017-10-12T05:12:06.086Z,1025.23
2017-10-12T05:13:06.079Z,1025.17
2017-10-12T05:14:06.082Z,1025.08
2017-10-12T05:15:06.068Z,1025.19
2017-10-12T05:16:06.061Z,1025.19
2017-10-12T05:17:06.056Z,1025.18
2017-10-12T05:18:06.050Z,1025.27
2017-10-12T05:19:06.043Z,1025.21
2017-10-12T05:20:06.037Z,1025.23
2017-10-12T05:21:06.032Z,1025.3
2017-10-12T05:22:06.030Z,1025.34
2017-10-12T05:23:06.020Z,1025.36
2017-10-12T05:24:06.014Z,1025.35
2017-10-12T05:25:06.012Z,1025.4
2017-10-12T05:26:06.002Z,1025.45
2017-10-12T05:27:05.995Z,1025.45
2017-10-12T05:28:05.990Z,1025.47
2017-10-12T05:29:05.981Z,1025.47
2017-10-12T05:30:05.977Z,1025.42
2017-10-12T05:31:05.969Z,1025.44
2017-10-12T05:32:05.964Z,1025.43
2017-10-12T05:33:05.957Z,1025.48
2017-10-12T05:34:05.950Z,1025.4
2017-10-12T05:35:05.946Z,1025.4
2017-10-12T05:36:05.942Z,1025.41
2017-10-12T05:37:05.935Z,1025.41
2017-10-12T05:38:05.929Z,1025.39
2017-10-12T05:39:05.920Z,1025.34
2017-10-12T05:40:05.913Z,1025.33
2017-10-12T05:41:05.911Z,1025.28
2017-10-12T05:42:05.922Z,1025.34
2017-10-12T05:43:05.897Z,1025.35
2017-10-12T05:44:05.890Z,1025.34
2017-10-12T05:45:05.886Z,1025.33
2017-10-12T05:46:05.879Z,1025.34
2017-10-12T05:47:05.872Z,1025.33
2017-10-12T05:48:05.866Z,1025.27
2017-10-12T05:49:05.860Z,1025.33
2017-10-12T05:50:05.855Z,1025.24
2017-10-12T05:51:05.848Z,1025.3
2017-10-12T05:52:05.842Z,1025.24
2017-10-12T05:53:05.834Z,1025.18
2017-10-12T05:54:05.828Z,1025.18
2017-10-12T05:55:05.824Z,1025.12
2017-10-12T05:56:05.818Z,1025.16
2017-10-12T05:57:05.811Z,1025.18
2017-10-12T05:58:05.804Z,1025.15
2017-10-12T05:59:05.797Z,1025.14
2017-10-12T06:00:05.791Z,1025.13
2017-10-12T06:01:05.785Z,1025.09
2017-10-12T06:02:05.779Z,1025.12
2017-10-12T06:03:05.774Z,1025.12
2017-10-12T06:04:05.769Z,1025.09
2017-10-12T06:05:05.763Z,1025.16
2017-10-12T06:06:05.757Z,1025.07
2017-10-12T06:07:05.752Z,1025.06
2017-10-12T06:08:05.743Z,1025.11
2017-10-12T06:09:05.736Z,1025.02
2017-10-12T06:10:05.730Z,1025
2017-10-12T06:11:05.726Z,1025.01
2017-10-12T06:12:05.723Z,1024.97
2017-10-12T06:13:05.715Z,1024.98
2017-10-12T06:14:05.711Z,1024.91
2017-10-12T06:15:05.701Z,1024.9
2017-10-12T06:16:05.694Z,1024.8
2017-10-12T06:17:05.689Z,1024.75
2017-10-12T06:18:05.685Z,1024.81
2017-10-12T06:19:05.679Z,1024.78
2017-10-12T06:20:05.672Z,1024.85
2017-10-12T06:21:05.668Z,1024.85
2017-10-12T06:22:05.661Z,1024.93
2017-10-12T06:23:05.660Z,1024.93
2017-10-12T06:24:05.651Z,1024.94
2017-10-12T06:25:05.651Z,1024.94
2017-10-12T06:26:05.640Z,1024.93
2017-10-12T06:27:05.639Z,1024.99
2017-10-12T06:28:05.627Z,1025.06
2017-10-12T06:29:05.622Z,1025.09
2017-10-12T06:30:05.617Z,1025.14
2017-10-12T06:31:05.612Z,1025.27
2017-10-12T06:32:05.607Z,1025.17
2017-10-12T06:33:05.601Z,1025.26
2017-10-12T06:34:05.595Z,1025.27
2017-10-12T06:35:05.588Z,1025.31
2017-10-12T06:36:05.583Z,1025.36
2017-10-12T06:37:05.578Z,1025.26
2017-10-12T06:38:05.572Z,1025.28
2017-10-12T06:39:05.568Z,1025.22
2017-10-12T06:40:05.564Z,1025.22
2017-10-12T06:41:05.560Z,1025.13
2017-10-12T06:42:05.551Z,1025.12
2017-10-12T06:43:05.545Z,1025.13
2017-10-12T06:44:05.543Z,1025.15
2017-10-12T06:45:05.536Z,1025.08
2017-10-12T06:46:05.530Z,1025.08
2017-10-12T06:47:05.522Z,1025.07
2017-10-12T06:48:05.517Z,1025.06
2017-10-12T06:49:05.512Z,1025.04
2017-10-12T06:50:05.507Z,1025.05
2017-10-12T06:51:05.503Z,1025.03
2017-10-12T06:52:05.501Z,1025.02
2017-10-12T06:53:05.491Z,1025
2017-10-12T06:54:05.486Z,1025.01
2017-10-12T06:55:05.479Z,1024.98
2017-10-12T06:56:05.475Z,1025.02
2017-10-12T06:57:05.469Z,1024.94
2017-10-12T06:58:05.481Z,1024.97
2017-10-12T06:59:05.460Z,1024.85
2017-10-12T07:00:05.454Z,1024.91
2017-10-12T07:01:05.448Z,1024.89
2017-10-12T07:02:05.444Z,1024.74
2017-10-12T07:03:05.437Z,1024.72
2017-10-12T07:04:05.431Z,1024.76
2017-10-12T07:05:05.427Z,1024.67
2017-10-12T07:06:05.421Z,1024.71
2017-10-12T07:07:05.418Z,1024.71
2017-10-12T07:08:05.411Z,1024.69
2017-10-12T07:09:05.407Z,1024.6
2017-10-12T07:10:05.402Z,1024.69
2017-10-12T07:11:05.397Z,1024.66
2017-10-12T07:12:05.392Z,1024.69
2017-10-12T07:13:05.387Z,1024.64
2017-10-12T07:14:05.384Z,1024.56
2017-10-12T07:15:05.379Z,1024.6
2017-10-12T07:16:05.372Z,1024.75
2017-10-12T07:17:05.369Z,1024.74
2017-10-12T07:18:05.362Z,1024.58
2017-10-12T07:19:05.360Z,1024.71
2017-10-12T07:20:05.355Z,1024.76
2017-10-12T07:21:05.355Z,1024.76
2017-10-12T07:22:05.343Z,1024.85
2017-10-12T07:23:05.338Z,1024.9
2017-10-12T07:24:05.333Z,1024.82
2017-10-12T07:25:05.329Z,1024.8
2017-10-12T07:26:05.323Z,1024.87
2017-10-12T07:27:05.321Z,1025.01
2017-10-12T07:28:05.316Z,1025.13
2017-10-12T07:29:05.310Z,1025.29
2017-10-12T07:30:05.307Z,1025.43
2017-10-12T07:31:05.300Z,1025.53
2017-10-12T07:32:05.294Z,1025.74
2017-10-12T07:33:05.290Z,1025.87
2017-10-12T07:34:05.285Z,1025.84
2017-10-12T07:35:05.280Z,1025.96
2017-10-12T07:36:05.275Z,1025.98
2017-10-12T07:37:05.269Z,1026.01
2017-10-12T07:38:05.264Z,1026.1
2017-10-12T07:39:05.261Z,1026.07
2017-10-12T07:40:05.255Z,1026.02
2017-10-12T07:41:05.250Z,1025.95
2017-10-12T07:42:05.246Z,1025.9
2017-10-12T07:43:05.240Z,1025.83
2017-10-12T07:44:05.233Z,1025.69
2017-10-12T07:45:05.229Z,1025.61
2017-10-12T07:46:05.224Z,1025.56
2017-10-12T07:47:05.219Z,1025.5
2017-10-12T07:48:05.213Z,1025.46
2017-10-12T07:49:05.208Z,1025.32
2017-10-12T07:50:05.203Z,1025.3
2017-10-12T07:51:05.202Z,1025.21
2017-10-12T07:52:05.190Z,1025.22
2017-10-12T07:53:05.187Z,1025.12
2017-10-12T07:54:05.181Z,1025.07
2017-10-12T07:55:05.177Z,1024.94
2017-10-12T07:56:05.171Z,1024.83
2017-10-12T07:57:05.168Z,1024.73
2017-10-12T07:58:05.163Z,1024.7
2017-10-12T07:59:05.155Z,1024.61
2017-10-12T08:00:05.156Z,1024.55
2017-10-12T08:01:05.147Z,1024.54
2017-10-12T08:02:05.141Z,1024.42
2017-10-12T08:03:05.136Z,1024.24
2017-10-12T08:04:05.133Z,1024.22
2017-10-12T08:05:05.128Z,1024.03
2017-10-12T08:06:05.122Z,1023.79
2017-10-12T08:07:05.120Z,1023.67
2017-10-12T08:08:05.116Z,1023.63
2017-10-12T08:09:05.112Z,1023.62
2017-10-12T08:10:05.107Z,1023.61
2017-10-12T08:11:05.102Z,1023.5
2017-10-12T08:12:05.098Z,1023.48
2017-10-12T08:13:05.095Z,1023.44
2017-10-12T08:14:05.090Z,1023.53
2017-10-12T08:15:05.088Z,1023.62
2017-10-12T08:16:05.085Z,1023.81
2017-10-12T08:17:05.081Z,1023.86
2017-10-12T08:18:05.078Z,1024.02
2017-10-12T08:19:05.074Z,1023.83
2017-10-12T08:20:05.088Z,1023.85
2017-10-12T08:21:05.066Z,1023.91
2017-10-12T08:22:05.063Z,1023.8
2017-10-12T08:23:05.061Z,1023.65
2017-10-12T08:24:05.060Z,1023.67
2017-10-12T08:25:05.054Z,1023.57
2017-10-12T08:26:05.049Z,1023.49
2017-10-12T08:27:05.052Z,1023.49
2017-10-12T08:28:05.045Z,1023.47
2017-10-12T08:29:05.042Z,1023.53
2017-10-12T08:30:05.039Z,1023.61
2017-10-12T08:31:05.034Z,1023.75
2017-10-12T08:32:05.032Z,1023.86
2017-10-12T08:33:05.033Z,1023.91
2017-10-12T08:34:05.026Z,1023.9
2017-10-12T08:35:05.022Z,1023.88
2017-10-12T08:36:05.021Z,1023.73
2017-10-12T08:37:05.018Z,1023.64
2017-10-12T08:38:05.014Z,1023.72
2017-10-12T08:39:05.010Z,1023.7
2017-10-12T08:40:05.008Z,1023.75
2017-10-12T08:41:05.005Z,1023.72
2017-10-12T08:42:05.002Z,1023.84
2017-10-12T08:43:05.001Z,1023.77
2017-10-12T08:44:04.997Z,1023.87
2017-10-12T08:45:04.995Z,1023.93
2017-10-12T08:46:04.991Z,1023.99
2017-10-12T08:47:04.987Z,1024.04
2017-10-12T08:48:04.984Z,1024.11
2017-10-12T08:49:04.982Z,1024.11
2017-10-12T08:50:04.979Z,1023.89
2017-10-12T08:51:04.977Z,1023.83
2017-10-12T08:52:04.974Z,1023.74
2017-10-12T08:53:04.970Z,1023.72
2017-10-12T08:54:04.967Z,1023.66
2017-10-12T08:55:04.967Z,1023.61
2017-10-12T08:56:04.964Z,1023.78
2017-10-12T08:57:04.959Z,1023.59
2017-10-12T08:58:04.958Z,1023.54
2017-10-12T08:59:04.953Z,1023.56
2017-10-12T09:00:04.950Z,1023.61
2017-10-12T09:01:04.948Z,1023.61
2017-10-12T09:02:04.946Z,1023.58
2017-10-12T09:03:04.943Z,1023.45
2017-10-12T09:04:04.941Z,1023.46
2017-10-12T09:05:04.939Z,1023.41
2017-10-12T09:06:04.938Z,1023.48
2017-10-12T09:07:04.933Z,1023.46
2017-10-12T09:08:04.930Z,1023.36
2017-10-12T09:09:04.928Z,1023.41
2017-10-12T09:10:04.925Z,1023.31
2017-10-12T09:11:04.925Z,1023.25
2017-10-12T09:12:04.935Z,1023.24
2017-10-12T09:13:04.920Z,1023.36
2017-10-12T09:14:04.917Z,1023.37
2017-10-12T09:15:04.912Z,1023.5
2017-10-12T09:16:04.915Z,1023.51
2017-10-12T09:17:04.912Z,1023.55
2017-10-12T09:18:04.908Z,1023.54
2017-10-12T09:19:04.903Z,1023.58
2017-10-12T09:20:04.902Z,1023.55
2017-10-12T09:21:04.901Z,1023.67
2017-10-12T09:22:04.900Z,1023.66
2017-10-12T09:23:04.897Z,1023.91
2017-10-12T09:24:04.896Z,1023.89
2017-10-12T09:25:04.893Z,1023.97
2017-10-12T09:26:04.890Z,1024.09
2017-10-12T09:27:04.889Z,1024.31
2017-10-12T09:28:04.884Z,1024.46
2017-10-12T09:29:04.882Z,1024.55
2017-10-12T09:30:04.880Z,1024.62
2017-10-12T09:31:04.880Z,1024.59
2017-10-12T09:32:04.875Z,1024.59
2017-10-12T09:33:04.873Z,1024.39
2017-10-12T09:34:04.872Z,1024.27
2017-10-12T09:35:04.866Z,1024.08
2017-10-12T09:36:04.865Z,1024.01
2017-10-12T09:37:04.862Z,1024.03
2017-10-12T09:38:04.860Z,1024.19
2017-10-12T09:39:04.858Z,1024.38
2017-10-12T09:40:04.856Z,1024.25
2017-10-12T09:41:05.055Z,1024.38
2017-10-12T09:42:04.851Z,1024.41
2017-10-12T09:43:04.849Z,1024.42
2017-10-12T09:44:04.849Z,1024.31
2017-10-12T09:45:04.843Z,1024.21
2017-10-12T09:46:04.840Z,1024.34
2017-10-12T09:47:04.836Z,1024.23
2017-10-12T09:48:04.835Z,1024.17
2017-10-12T09:49:04.830Z,1024.03
2017-10-12T09:50:04.828Z,1023.94
2017-10-12T09:51:04.828Z,1023.87
2017-10-12T09:52:04.826Z,1023.87
2017-10-12T09:53:04.823Z,1024
2017-10-12T09:54:04.824Z,1023.89
2017-10-12T09:55:04.818Z,1023.8
2017-10-12T09:56:04.813Z,1023.66
2017-10-12T09:57:04.813Z,1023.71
2017-10-12T09:58:04.810Z,1023.72
2017-10-12T09:59:04.809Z,1023.69
2017-10-12T10:00:04.815Z,1023.6
2017-10-12T10:01:04.805Z,1023.58
2017-10-12T10:02:04.810Z,1023.63
2017-10-12T10:03:04.799Z,1023.47
2017-10-12T10:04:04.797Z,1023.52
2017-10-12T10:05:04.797Z,1023.65
2017-10-12T10:06:04.794Z,1023.55
2017-10-12T10:07:04.792Z,1023.56
2017-10-12T10:08:04.791Z,1023.57
2017-10-12T10:09:04.789Z,1023.55
2017-10-12T10:10:04.787Z,1023.65
2017-10-12T10:11:04.794Z,1023.7
2017-10-12T10:12:04.785Z,1023.72
2017-10-12T10:13:04.783Z,1023.75
2017-10-12T10:14:04.780Z,1023.63
2017-10-12T10:15:04.779Z,1023.82
2017-10-12T10:16:04.776Z,1023.68
2017-10-12T10:17:04.774Z,1023.63
2017-10-12T10:18:04.772Z,1023.71
2017-10-12T10:19:04.772Z,1023.74
2017-10-12T10:20:04.771Z,1023.87
2017-10-12T10:21:04.768Z,1023.82
2017-10-12T10:22:04.767Z,1023.84
2017-10-12T10:23:04.765Z,1023.79
2017-10-12T10:24:04.762Z,1023.76
2017-10-12T10:25:04.760Z,1023.79
2017-10-12T10:26:04.759Z,1023.67
2017-10-12T10:27:04.759Z,1023.77
2017-10-12T10:28:04.758Z,1023.68
2017-10-12T10:29:04.756Z,1023.54
2017-10-12T10:30:04.760Z,1023.54
2017-10-12T10:31:04.756Z,1023.45
2017-10-12T10:32:04.750Z,1023.35
2017-10-12T10:33:04.753Z,1023.28
2017-10-12T10:34:04.750Z,1023.38
2017-10-12T10:35:04.748Z,1023.31
2017-10-12T10:36:04.746Z,1023.24
2017-10-12T10:37:04.754Z,1023.2
2017-10-12T10:38:04.744Z,1023.31
2017-10-12T10:39:04.742Z,1023.34
2017-10-12T10:40:04.742Z,1023.41
2017-10-12T10:41:04.742Z,1023.37
2017-10-12T10:42:04.739Z,1023.46
2017-10-12T10:43:04.737Z,1023.57
2017-10-12T10:44:04.738Z,1023.65
2017-10-12T10:45:04.736Z,1023.45
2017-10-12T10:46:04.739Z,1023.56
2017-10-12T10:47:04.734Z,1023.65
2017-10-12T10:48:04.740Z,1023.75
2017-10-12T10:49:04.734Z,1024.02
2017-10-12T10:50:04.731Z,1024.24
2017-10-12T10:51:04.734Z,1024.28
2017-10-12T10:52:04.728Z,1024.41
2017-10-12T10:53:04.727Z,1024.62
2017-10-12T10:54:04.726Z,1024.72
2017-10-12T10:55:04.727Z,1024.72
2017-10-12T10:56:04.724Z,1024.6
2017-10-12T10:57:04.723Z,1024.72
2017-10-12T10:58:04.720Z,1024.78
2017-10-12T10:59:04.718Z,1024.84
2017-10-12T11:00:04.717Z,1024.82
2017-10-12T11:01:04.715Z,1024.79
2017-10-12T11:02:04.714Z,1024.8
2017-10-12T11:03:04.711Z,1024.75
2017-10-12T11:04:04.710Z,1024.88
2017-10-12T11:05:04.707Z,1024.94
2017-10-12T11:06:04.705Z,1025.09
2017-10-12T11:07:04.706Z,1025.3
2017-10-12T11:08:04.704Z,1025.3
2017-10-12T11:09:04.701Z,1025.36
2017-10-12T11:10:04.699Z,1025.4
2017-10-12T11:11:04.695Z,1025.5
2017-10-12T11:12:04.693Z,1025.52
2017-10-12T11:13:04.690Z,1025.53
2017-10-12T11:14:04.688Z,1025.54
2017-10-12T11:15:04.688Z,1025.48
2017-10-12T11:16:04.686Z,1025.53
2017-10-12T11:17:04.682Z,1025.44
2017-10-12T11:18:04.680Z,1025.45
2017-10-12T11:19:04.678Z,1025.42
2017-10-12T11:20:04.674Z,1025.59
2017-10-12T11:21:04.671Z,1025.64
2017-10-12T11:22:04.670Z,1025.69
2017-10-12T11:23:04.668Z,1025.76
2017-10-12T11:24:04.666Z,1025.92
2017-10-12T11:25:04.668Z,1026.04
2017-10-12T11:26:04.662Z,1026.21
2017-10-12T11:27:04.658Z,1026.31
2017-10-12T11:28:04.654Z,1026.31
2017-10-12T11:29:04.652Z,1026.35
2017-10-12T11:30:04.650Z,1026.43
2017-10-12T11:31:04.647Z,1026.51
2017-10-12T11:32:04.645Z,1026.47
2017-10-12T11:33:04.641Z,1026.66
2017-10-12T11:34:04.638Z,1026.62
2017-10-12T11:35:04.634Z,1026.72
2017-10-12T11:36:04.631Z,1026.65
2017-10-12T11:37:04.629Z,1026.68
2017-10-12T11:38:04.629Z,1026.54
2017-10-12T11:39:04.623Z,1026.71
2017-10-12T11:40:04.622Z,1026.69
2017-10-12T11:41:04.616Z,1026.8
2017-10-12T11:42:04.613Z,1026.78
2017-10-12T11:43:04.609Z,1026.83
2017-10-12T11:44:04.605Z,1026.84
2017-10-12T11:45:04.602Z,1026.83
2017-10-12T11:46:04.598Z,1026.74
2017-10-12T11:47:04.597Z,1026.77
2017-10-12T11:48:04.641Z,1026.77
2017-10-12T11:49:04.590Z,1026.84
2017-10-12T11:50:04.588Z,1027.01
2017-10-12T11:51:04.584Z,1027.09
2017-10-12T11:52:04.579Z,1027.12
2017-10-12T11:53:04.576Z,1027.15
2017-10-12T11:54:04.573Z,1027.17
2017-10-12T11:55:04.568Z,1027.17
2017-10-12T11:56:04.564Z,1027.16
2017-10-12T11:57:04.562Z,1027.2
2017-10-12T11:58:04.558Z,1027.26
2017-10-12T11:59:04.557Z,1027.24
2017-10-12T12:00:04.561Z,1027.29
2017-10-12T12:01:04.548Z,1027.39
2017-10-12T12:02:04.544Z,1027.4
2017-10-12T12:03:04.541Z,1027.37
2017-10-12T12:04:04.538Z,1027.45
2017-10-12T12:05:04.533Z,1027.51
2017-10-12T12:06:04.529Z,1027.45
2017-10-12T12:07:04.526Z,1027.47
2017-10-12T12:08:04.521Z,1027.57